createdAt,value
2022-09-01T00:00:03.194Z,13.45
2022-09-01T00:02:30.682Z,13.39
2022-09-01T00:04:58.385Z,13.28
2022-09-01T00:07:29.876Z,13.14
2022-09-01T00:09:56.418Z,13.06
2022-09-01T00:12:25.528Z,13.05
2022-09-01T00:14:52.720Z,13.04
2022-09-01T00:17:19.342Z,13.01
2022-09-01T00:19:46.005Z,12.91
2022-09-01T00:22:12.588Z,12.85
2022-09-01T00:24:39.098Z,12.85
2022-09-01T00:27:05.736Z,12.87
2022-09-01T00:29:32.359Z,12.85
2022-09-01T00:31:59.347Z,12.80
2022-09-01T00:34:25.873Z,12.75
2022-09-01T00:36:52.492Z,12.64
2022-09-01T00:39:19.297Z,12.60
2022-09-01T00:41:47.200Z,12.56
2022-09-01T00:44:23.136Z,12.51
2022-09-01T00:46:55.357Z,12.47
2022-09-01T00:49:35.609Z,12.39
2022-09-01T00:52:19.290Z,12.31
2022-09-01T00:54:51.292Z,12.38
2022-09-01T00:57:18.074Z,12.49
2022-09-01T00:59:56.763Z,12.46
2022-09-01T01:02:24.367Z,12.46
2022-09-01T01:04:52.623Z,12.35
2022-09-01T01:07:22.859Z,12.35
2022-09-01T01:09:51.260Z,12.27
2022-09-01T01:12:18.321Z,12.25
2022-09-01T01:14:50.345Z,12.26
2022-09-01T01:17:20.881Z,12.29
2022-09-01T01:20:12.898Z,12.31
2022-09-01T01:23:02.183Z,12.24
2022-09-01T01:25:32.495Z,12.23
2022-09-01T01:28:25.670Z,12.12
2022-09-01T01:31:06.150Z,12.07
2022-09-01T01:33:45.427Z,12.05
2022-09-01T01:36:31.081Z,11.94
2022-09-01T01:39:03.101Z,11.94
2022-09-01T01:41:33.364Z,11.93
2022-09-01T01:44:05.269Z,11.92
2022-09-01T01:46:35.260Z,11.90
2022-09-01T01:49:03.433Z,11.85
2022-09-01T01:51:32.859Z,11.93
2022-09-01T01:54:05.474Z,11.98
2022-09-01T01:56:37.883Z,12.02
2022-09-01T01:59:04.386Z,12.02
2022-09-01T02:01:33.706Z,11.93
2022-09-01T02:04:01.155Z,11.93
2022-09-01T02:06:28.779Z,11.97
2022-09-01T02:08:57.901Z,11.90
2022-09-01T02:11:26.203Z,11.78
2022-09-01T02:13:57.055Z,11.69
2022-09-01T02:16:26.436Z,11.66
2022-09-01T02:18:53.857Z,11.63
2022-09-01T02:21:23.731Z,11.59
2022-09-01T02:24:04.343Z,11.60
2022-09-01T02:26:45.787Z,11.60
2022-09-01T02:29:20.903Z,11.66
2022-09-01T02:31:52.957Z,11.63
2022-09-01T02:34:23.973Z,11.51
2022-09-01T02:36:53.570Z,11.46
2022-09-01T02:39:25.670Z,11.36
2022-09-01T02:41:52.321Z,11.38
2022-09-01T02:44:19.907Z,11.42
2022-09-01T02:46:47.555Z,11.42
2022-09-01T02:49:24.689Z,11.39
2022-09-01T02:51:54.036Z,11.48
2022-09-01T02:54:24.477Z,11.57
2022-09-01T02:56:54.430Z,11.50
2022-09-01T02:59:26.260Z,11.32
2022-09-01T03:01:54.962Z,11.13
2022-09-01T03:04:24.228Z,11.18
2022-09-01T03:06:54.987Z,11.23
2022-09-01T03:09:22.751Z,11.28
2022-09-01T03:11:53.089Z,11.35
2022-09-01T03:14:21.940Z,11.38
2022-09-01T03:16:48.620Z,11.33
2022-09-01T03:19:16.585Z,11.28
2022-09-01T03:21:46.009Z,11.22
2022-09-01T03:24:16.716Z,11.19
2022-09-01T03:26:45.861Z,11.13
2022-09-01T03:29:17.051Z,11.12
2022-09-01T03:31:43.661Z,11.11
2022-09-01T03:34:10.976Z,11.09
2022-09-01T03:36:38.119Z,11.12
2022-09-01T03:39:04.854Z,11.10
2022-09-01T03:41:32.123Z,11.02
2022-09-01T03:43:59.550Z,11.06
2022-09-01T03:46:33.144Z,11.10
2022-09-01T03:49:06.839Z,11.10
2022-09-01T03:51:34.055Z,11.00
2022-09-01T03:54:00.667Z,10.87
2022-09-01T03:56:29.304Z,10.83
2022-09-01T03:58:59.496Z,10.81
2022-09-01T04:01:29.016Z,10.73
2022-09-01T04:03:55.791Z,10.78
2022-09-01T04:06:23.977Z,10.81
2022-09-01T04:08:57.663Z,10.81
2022-09-01T04:11:25.208Z,10.82
2022-09-01T04:13:52.221Z,10.80
2022-09-01T04:17:09.702Z,10.67
2022-09-01T04:19:39.245Z,10.68
2022-09-01T04:22:07.949Z,10.73
2022-09-01T04:24:34.827Z,10.69
2022-09-01T04:27:03.165Z,10.68
2022-09-01T04:29:31.717Z,10.75
2022-09-01T04:32:12.504Z,10.63
2022-09-01T04:34:40.265Z,10.58
2022-09-01T04:37:21.139Z,10.53
2022-09-01T04:39:56.455Z,10.51
2022-09-01T04:42:27.057Z,10.53
2022-09-01T04:44:57.151Z,10.55
2022-09-01T04:47:30.177Z,10.55
2022-09-01T04:50:03.490Z,10.57
2022-09-01T04:52:31.911Z,10.60
2022-09-01T04:54:58.626Z,10.39
2022-09-01T04:57:27.506Z,10.29
2022-09-01T04:59:56.798Z,10.32
2022-09-01T05:02:26.936Z,10.32
2022-09-01T05:04:54.136Z,10.38
2022-09-01T05:07:21.432Z,10.45
2022-09-01T05:09:47.917Z,10.38
2022-09-01T05:12:15.976Z,10.39
2022-09-01T05:14:48.312Z,10.28
2022-09-01T05:17:17.153Z,10.24
2022-09-01T05:19:47.681Z,10.28
2022-09-01T05:22:15.635Z,10.24
2022-09-01T05:24:42.442Z,10.27
2022-09-01T05:27:10.461Z,10.27
2022-09-01T05:29:38.556Z,10.23
2022-09-01T05:32:08.809Z,10.26
2022-09-01T05:34:38.661Z,10.22
2022-09-01T05:37:08.540Z,10.24
2022-09-01T05:39:37.989Z,10.19
2022-09-01T05:42:08.285Z,10.15
2022-09-01T05:44:36.448Z,10.02
2022-09-01T05:47:05.342Z,10.03
2022-09-01T05:49:33.042Z,10.11
2022-09-01T05:51:59.587Z,10.08
2022-09-01T05:54:27.942Z,10.08
2022-09-01T05:57:08.203Z,10.08
2022-09-01T05:59:45.913Z,10.01
2022-09-01T06:02:12.616Z,10.03
2022-09-01T06:04:44.057Z,10.01
2022-09-01T06:07:17.487Z,9.96
2022-09-01T06:09:48.474Z,9.97
2022-09-01T06:12:23.315Z,10.02
2022-09-01T06:14:53.525Z,10.03
2022-09-01T06:17:24.593Z,10.05
2022-09-01T06:19:56.346Z,10.02
2022-09-01T06:22:25.944Z,10.07
2022-09-01T06:24:57.902Z,10.14
2022-09-01T06:27:29.257Z,10.21
2022-09-01T06:29:56.370Z,10.30
2022-09-01T06:32:25.615Z,10.44
2022-09-01T06:34:52.193Z,10.56
2022-09-01T06:37:22.744Z,10.66
2022-09-01T06:39:50.643Z,10.69
2022-09-01T06:42:19.034Z,10.81
2022-09-01T06:44:45.990Z,10.88
2022-09-01T06:47:13.011Z,11.02
2022-09-01T06:49:40.847Z,11.14
2022-09-01T06:52:07.739Z,11.33
2022-09-01T06:54:39.086Z,11.54
2022-09-01T06:59:53.862Z,11.83
2022-09-01T07:05:08.432Z,12.31
2022-09-01T07:10:26.572Z,12.77
2022-09-01T07:13:06.121Z,12.88
2022-09-01T07:16:32.891Z,13.01
2022-09-01T07:18:25.239Z,13.11
2022-09-01T07:21:38.871Z,13.22
2022-09-01T07:24:07.644Z,13.39
2022-09-01T07:26:30.406Z,13.51
2022-09-01T07:29:01.465Z,13.64
2022-09-01T07:32:41.210Z,13.83
2022-09-01T07:34:38.692Z,13.94
2022-09-01T07:42:58.016Z,12.02
2022-09-01T07:45:28.685Z,14.32
2022-09-01T07:47:59.382Z,14.45
2022-09-01T07:50:40.158Z,14.60
2022-09-01T07:53:09.113Z,14.69
2022-09-01T07:55:39.842Z,14.74
2022-09-01T07:58:06.455Z,14.83
2022-09-01T08:00:34.220Z,14.95
2022-09-01T08:03:01.295Z,15.06
2022-09-01T08:05:28.855Z,15.16
2022-09-01T08:07:55.447Z,15.24
2022-09-01T08:10:22.015Z,15.38
2022-09-01T08:12:56.369Z,15.48
2022-09-01T08:16:06.497Z,15.59
2022-09-01T08:18:14.685Z,15.61
2022-09-01T08:20:47.280Z,15.66
2022-09-01T08:23:20.218Z,15.77
2022-09-01T08:25:47.882Z,15.86
2022-09-01T08:28:15.834Z,15.95
2022-09-01T08:30:52.274Z,15.96
2022-09-01T08:33:19.837Z,16.00
2022-09-01T08:35:48.991Z,16.09
2022-09-01T08:38:16.005Z,16.19
2022-09-01T08:40:56.422Z,16.37
2022-09-01T08:44:26.816Z,16.41
2022-09-01T08:47:39.291Z,16.49
2022-09-01T08:50:09.653Z,16.62
2022-09-01T08:52:47.676Z,16.66
2022-09-01T08:55:35.114Z,16.66
2022-09-01T08:58:02.246Z,16.84
2022-09-01T09:00:41.946Z,17.03
2022-09-01T09:03:26.101Z,17.12
2022-09-01T09:06:15.188Z,17.25
2022-09-01T09:09:04.126Z,17.26
2022-09-01T09:11:56.729Z,17.34
2022-09-01T09:14:43.024Z,17.42
2022-09-01T09:17:10.958Z,17.50
2022-09-01T09:19:41.675Z,17.53
2022-09-01T09:22:13.571Z,17.62
2022-09-01T09:24:50.079Z,17.68
2022-09-01T09:27:42.581Z,17.74
2022-09-01T09:30:24.687Z,17.85
2022-09-01T09:35:45.667Z,17.98
2022-09-01T09:38:33.315Z,18.08
2022-09-01T09:44:03.202Z,18.13
2022-09-01T09:46:32.582Z,18.34
2022-09-01T09:49:34.546Z,18.39
2022-09-01T09:52:03.210Z,18.46
2022-09-01T09:54:34.306Z,18.58
2022-09-01T09:57:09.585Z,18.60
2022-09-01T09:59:59.247Z,18.68
2022-09-01T10:02:38.294Z,18.77
2022-09-01T10:05:26.612Z,18.83
2022-09-01T10:07:55.959Z,18.95
2022-09-01T10:10:57.589Z,19.08
2022-09-01T10:13:27.447Z,19.29
2022-09-01T10:15:58.792Z,19.45
2022-09-01T10:18:36.177Z,19.48
2022-09-01T10:21:17.165Z,19.67
2022-09-01T10:23:44.924Z,19.76
2022-09-01T10:26:26.251Z,19.83
2022-09-01T10:29:15.498Z,19.84
2022-09-01T10:31:42.924Z,19.94
2022-09-01T10:34:19.318Z,20.02
2022-09-01T10:36:55.019Z,20.07
2022-09-01T10:39:28.599Z,19.95
2022-09-01T10:42:08.115Z,19.85
2022-09-01T10:44:56.231Z,19.76
2022-09-01T10:47:33.735Z,19.71
2022-09-01T10:50:22.843Z,19.82
2022-09-01T10:52:51.355Z,19.99
2022-09-01T10:55:43.957Z,20.40
2022-09-01T11:01:49.862Z,20.83
2022-09-01T11:04:44.709Z,20.92
2022-09-01T11:07:44.572Z,21.10
2022-09-01T11:10:34.473Z,21.13
2022-09-01T11:13:26.059Z,21.07
2022-09-01T11:15:53.621Z,21.16
2022-09-01T11:18:33.570Z,21.05
2022-09-01T11:21:25.802Z,21.01
2022-09-01T11:24:41.183Z,21.01
2022-09-01T11:27:32.594Z,21.07
2022-09-01T11:30:09.059Z,21.04
2022-09-01T11:32:39.591Z,21.13
2022-09-01T11:35:18.982Z,21.30
2022-09-01T11:37:51.914Z,21.47
2022-09-01T11:40:31.264Z,21.55
2022-09-01T11:43:07.083Z,21.70
2022-09-01T11:46:08.811Z,21.85
2022-09-01T11:48:39.543Z,22.22
2022-09-01T11:51:06.219Z,22.23
2022-09-01T11:53:32.885Z,22.10
2022-09-01T11:56:26.082Z,21.93
2022-09-01T11:58:52.683Z,22.00
2022-09-01T12:01:37.097Z,21.82
2022-09-01T12:04:22.201Z,21.73
2022-09-01T12:07:05.239Z,21.73
2022-09-01T12:09:48.011Z,21.65
2022-09-01T12:12:36.482Z,21.58
2022-09-01T12:15:24.014Z,21.60
2022-09-01T12:17:52.361Z,21.68
2022-09-01T12:20:29.160Z,21.76
2022-09-01T12:22:58.421Z,21.92
2022-09-01T12:25:28.685Z,22.12
2022-09-01T12:27:55.541Z,22.30
2022-09-01T12:30:24.645Z,22.52
2022-09-01T12:32:52.235Z,22.73
2022-09-01T12:35:26.266Z,22.96
2022-09-01T12:38:18.653Z,23.17
2022-09-01T12:40:48.989Z,23.12
2022-09-01T12:43:40.637Z,22.97
2022-09-01T12:46:10.197Z,23.03
2022-09-01T12:48:41.638Z,22.93
2022-09-01T12:51:26.563Z,22.80
2022-09-01T12:54:04.205Z,22.81
2022-09-01T12:56:35.160Z,22.73
2022-09-01T12:59:17.335Z,22.72
2022-09-01T13:01:45.157Z,22.74
2022-09-01T13:04:29.966Z,22.74
2022-09-01T13:07:06.069Z,22.63
2022-09-01T13:09:32.860Z,22.52
2022-09-01T13:12:31.673Z,22.66
2022-09-01T13:14:58.197Z,22.86
2022-09-01T13:17:24.708Z,23.05
2022-09-01T13:19:51.231Z,23.15
2022-09-01T13:22:17.777Z,23.05
2022-09-01T13:24:44.268Z,22.97
2022-09-01T13:27:20.868Z,22.92
2022-09-01T13:29:48.443Z,22.85
2022-09-01T13:32:19.244Z,22.95
2022-09-01T13:34:52.531Z,23.06
2022-09-01T13:37:21.614Z,23.12
2022-09-01T13:39:48.626Z,23.16
2022-09-01T13:42:16.501Z,23.22
2022-09-01T13:44:44.248Z,23.24
2022-09-01T13:50:11.619Z,23.22
2022-09-01T13:52:42.691Z,23.25
2022-09-01T13:55:20.435Z,23.38
2022-09-01T13:57:46.939Z,23.51
2022-09-01T14:00:18.482Z,23.27
2022-09-01T14:02:49.943Z,23.23
2022-09-01T14:05:20.507Z,23.24
2022-09-01T14:07:47.212Z,23.27
2022-09-01T14:10:14.320Z,23.00
2022-09-01T14:12:42.099Z,22.85
2022-09-01T14:15:14.255Z,22.80
2022-09-01T14:17:43.945Z,22.74
2022-09-01T14:20:16.022Z,22.71
2022-09-01T14:22:42.550Z,22.67
2022-09-01T14:25:10.713Z,22.61
2022-09-01T14:27:38.146Z,22.59
2022-09-01T14:30:08.264Z,22.62
2022-09-01T14:32:36.328Z,22.64
2022-09-01T14:35:08.082Z,22.64
2022-09-01T14:37:38.255Z,22.72
2022-09-01T14:40:08.160Z,22.75
2022-09-01T14:42:37.002Z,22.79
2022-09-01T14:45:05.286Z,22.91
2022-09-01T14:47:31.953Z,22.98
2022-09-01T14:50:01.354Z,23.00
2022-09-01T14:52:27.998Z,23.09
2022-09-01T14:54:54.598Z,22.94
2022-09-01T14:57:30.791Z,22.86
2022-09-01T15:00:11.867Z,22.82
2022-09-01T15:02:41.582Z,22.82
2022-09-01T15:05:10.331Z,22.81
2022-09-01T15:07:37.384Z,22.74
2022-09-01T15:10:06.502Z,22.69
2022-09-01T15:12:33.245Z,22.74
2022-09-01T15:15:01.049Z,22.82
2022-09-01T15:17:28.942Z,22.82
2022-09-01T15:19:55.822Z,22.76
2022-09-01T15:22:22.490Z,22.70
2022-09-01T15:24:48.998Z,22.64
2022-09-01T15:27:15.479Z,22.59
2022-09-01T15:29:47.780Z,22.55
2022-09-01T15:32:27.488Z,22.52
2022-09-01T15:34:55.431Z,22.48
2022-09-01T15:37:21.955Z,22.49
2022-09-01T15:39:48.442Z,22.47
2022-09-01T15:42:17.134Z,22.48
2022-09-01T15:44:44.006Z,22.57
2022-09-01T15:47:10.536Z,22.70
2022-09-01T15:49:37.077Z,22.76
2022-09-01T15:52:03.954Z,22.78
2022-09-01T15:54:30.890Z,22.79
2022-09-01T15:56:57.755Z,22.86
2022-09-01T15:59:24.275Z,22.85
2022-09-01T16:01:53.065Z,22.85
2022-09-01T16:04:24.105Z,22.85
2022-09-01T16:06:52.591Z,22.74
2022-09-01T16:09:21.084Z,22.65
2022-09-01T16:11:48.039Z,22.58
2022-09-01T16:14:15.901Z,22.45
2022-09-01T16:16:51.839Z,22.32
2022-09-01T16:19:33.331Z,22.24
2022-09-01T16:22:17.694Z,22.20
2022-09-01T16:24:51.654Z,22.12
2022-09-01T16:27:25.188Z,22.06
2022-09-01T16:29:58.254Z,22.00
2022-09-01T16:32:25.770Z,21.96
2022-09-01T16:34:52.899Z,21.90
2022-09-01T16:37:56.745Z,21.82
2022-09-01T16:40:56.362Z,21.71
2022-09-01T16:43:48.707Z,21.66
2022-09-01T16:46:37.714Z,21.64
2022-09-01T16:49:36.931Z,21.63
2022-09-01T16:52:29.427Z,21.67
2022-09-01T16:55:42.228Z,21.57
2022-09-01T16:58:32.496Z,21.55
2022-09-01T17:01:17.088Z,21.58
2022-09-01T17:04:01.390Z,21.54
2022-09-01T17:06:37.752Z,21.54
2022-09-01T17:09:18.852Z,21.51
2022-09-01T17:11:54.047Z,21.49
2022-09-01T17:14:47.411Z,21.50
2022-09-01T17:17:30.546Z,21.40
2022-09-01T17:19:57.847Z,21.33
2022-09-01T17:22:25.659Z,21.33
2022-09-01T17:25:27.893Z,21.18
2022-09-01T17:28:26.043Z,21.11
2022-09-01T17:31:05.387Z,21.06
2022-09-01T17:34:06.266Z,20.94
2022-09-01T17:37:01.913Z,20.82
2022-09-01T17:39:56.236Z,20.72
2022-09-01T17:42:49.027Z,20.62
2022-09-01T17:45:25.033Z,20.49
2022-09-01T17:48:15.110Z,20.39
2022-09-01T17:51:24.878Z,20.27
2022-09-01T17:54:23.458Z,20.07
2022-09-01T17:57:15.915Z,19.98
2022-09-01T17:59:54.483Z,19.87
2022-09-01T18:03:19.124Z,19.79
2022-09-01T18:06:04.480Z,19.68
2022-09-01T18:08:53.894Z,19.56
2022-09-01T18:11:49.464Z,19.32
2022-09-01T18:14:24.646Z,19.14
2022-09-01T18:17:22.523Z,19.01
2022-09-01T18:20:06.570Z,18.92
2022-09-01T18:22:44.757Z,18.75
2022-09-01T18:25:20.602Z,18.66
2022-09-01T18:27:47.903Z,18.58
2022-09-01T18:30:36.333Z,18.44
2022-09-01T18:33:42.271Z,18.32
2022-09-01T18:36:32.159Z,18.14
2022-09-01T18:39:32.972Z,18.07
2022-09-01T18:42:28.789Z,17.94
2022-09-01T18:45:20.920Z,17.83
2022-09-01T18:48:38.874Z,17.61
2022-09-01T18:51:23.681Z,17.53
2022-09-01T18:54:09.135Z,17.53
2022-09-01T18:56:57.437Z,17.43
2022-09-01T18:59:56.347Z,17.30
2022-09-01T19:02:54.023Z,17.22
2022-09-01T19:05:38.213Z,17.19
2022-09-01T19:08:27.522Z,17.03
2022-09-01T19:11:10.655Z,17.03
2022-09-01T19:14:06.161Z,16.96
2022-09-01T19:16:55.207Z,16.95
2022-09-01T19:19:52.369Z,16.80
2022-09-01T19:22:33.082Z,16.70
2022-09-01T19:25:25.575Z,16.52
2022-09-01T19:28:31.502Z,16.47
2022-09-01T19:31:08.307Z,16.29
2022-09-01T19:33:43.826Z,16.21
2022-09-01T19:36:20.382Z,16.18
2022-09-01T19:38:47.542Z,16.16
2022-09-01T19:41:25.704Z,16.04
2022-09-01T19:44:12.722Z,16.05
2022-09-01T19:46:47.011Z,15.82
2022-09-01T19:49:17.105Z,15.79
2022-09-01T19:51:56.879Z,15.70
2022-09-01T19:54:51.704Z,15.61
2022-09-01T19:57:44.964Z,15.55
2022-09-01T20:00:17.626Z,15.58
2022-09-01T20:03:08.321Z,15.60
2022-09-01T20:05:53.919Z,15.52
2022-09-01T20:08:39.739Z,15.49
2022-09-01T20:11:40.017Z,15.41
2022-09-01T20:14:34.386Z,15.36
2022-09-01T20:17:06.798Z,15.27
2022-09-01T20:19:51.234Z,15.17
2022-09-01T20:22:40.370Z,15.16
2022-09-01T20:25:17.797Z,15.20
2022-09-01T20:28:19.284Z,15.14
2022-09-01T20:30:56.976Z,15.09
2022-09-01T20:33:36.558Z,15.08
2022-09-01T20:36:19.386Z,15.02
2022-09-01T20:39:33.919Z,14.99
2022-09-01T20:42:20.976Z,14.95
2022-09-01T20:45:13.453Z,14.72
2022-09-01T20:47:40.119Z,14.70
2022-09-01T20:50:13.920Z,14.73
2022-09-01T20:53:07.319Z,14.66
2022-09-01T20:56:01.491Z,14.69
2022-09-01T20:58:46.121Z,14.73
2022-09-01T21:01:32.445Z,14.73
2022-09-01T21:04:35.786Z,14.71
2022-09-01T21:07:16.450Z,14.64
2022-09-01T21:10:17.634Z,14.54
2022-09-01T21:13:00.965Z,14.52
2022-09-01T21:15:46.183Z,14.53
2022-09-01T21:18:46.698Z,14.40
2022-09-01T21:21:35.956Z,14.38
2022-09-01T21:24:07.453Z,14.40
2022-09-01T21:26:38.134Z,14.43
2022-09-01T21:29:49.745Z,14.36
2022-09-01T21:32:17.347Z,14.35
2022-09-01T21:34:45.960Z,14.33
2022-09-01T21:37:13.028Z,14.35
2022-09-01T21:39:39.951Z,14.39
2022-09-01T21:42:10.724Z,14.32
2022-09-01T21:44:38.526Z,14.21
2022-09-01T21:47:05.510Z,14.26
2022-09-01T21:49:33.220Z,14.28
2022-09-01T21:52:00.082Z,14.10
2022-09-01T21:54:26.889Z,14.01
2022-09-01T21:56:53.478Z,14.06
2022-09-01T21:59:20.407Z,14.04
2022-09-01T22:01:47.803Z,14.03
2022-09-01T22:04:17.195Z,13.94
2022-09-01T22:06:45.850Z,13.83
2022-09-01T22:09:21.116Z,13.83
2022-09-01T22:11:50.957Z,13.79
2022-09-01T22:14:20.391Z,13.80
2022-09-01T22:16:48.877Z,13.76
2022-09-01T22:19:16.153Z,13.71
2022-09-01T22:21:43.609Z,13.59
2022-09-01T22:24:10.526Z,13.60
2022-09-01T22:26:37.039Z,13.59
2022-09-01T22:29:06.927Z,13.55
2022-09-01T22:31:38.076Z,13.56
2022-09-01T22:34:07.138Z,13.52
2022-09-01T22:36:42.684Z,13.55
2022-09-01T22:39:11.626Z,13.52
2022-09-01T22:41:40.724Z,13.47
2022-09-01T22:44:08.941Z,13.53
2022-09-01T22:46:38.690Z,13.53
2022-09-01T22:49:06.527Z,13.52
2022-09-01T22:51:34.662Z,13.59
2022-09-01T22:54:01.206Z,13.65
2022-09-01T22:56:32.246Z,13.64
2022-09-01T22:59:02.695Z,13.54
2022-09-01T23:01:37.385Z,13.43
2022-09-01T23:04:07.399Z,13.41
2022-09-01T23:06:38.432Z,13.38
2022-09-01T23:09:08.765Z,13.28
2022-09-01T23:11:35.330Z,13.32
2022-09-01T23:14:02.541Z,13.30
2022-09-01T23:16:29.458Z,13.28
2022-09-01T23:18:56.501Z,13.30
2022-09-01T23:21:30.428Z,13.35
2022-09-01T23:23:58.851Z,13.34
2022-09-01T23:26:27.716Z,13.28
2022-09-01T23:28:54.427Z,13.20
2022-09-01T23:31:25.810Z,13.16
2022-09-01T23:33:53.067Z,13.10
2022-09-01T23:36:23.610Z,13.04
2022-09-01T23:38:51.594Z,13.04
2022-09-01T23:41:31.792Z,13.00
2022-09-01T23:44:02.719Z,13.03
2022-09-01T23:46:36.826Z,13.04
2022-09-01T23:49:04.848Z,13.06
2022-09-01T23:51:31.541Z,13.05
2022-09-01T23:53:58.858Z,13.03
2022-09-01T23:56:28.498Z,13.02
2022-09-01T23:58:55.369Z,12.98
